createdAt,value
2023-04-28T00:01:41.576Z,7.90
2023-04-28T00:04:08.456Z,10.20
2023-04-28T00:06:35.403Z,8.98
2023-04-28T00:09:01.987Z,9.77
2023-04-28T00:11:28.504Z,11.10
2023-04-28T00:13:55.158Z,9.20
2023-04-28T00:16:21.821Z,7.30
2023-04-28T00:18:48.398Z,11.18
2023-04-28T00:21:14.958Z,10.48
2023-04-28T00:23:41.576Z,7.22
2023-04-28T00:26:08.186Z,10.45
2023-04-28T00:28:35.245Z,11.95
2023-04-28T00:31:11.386Z,9.43
2023-04-28T00:33:38.968Z,8.18
2023-04-28T00:36:06.031Z,7.25
2023-04-28T00:38:33.773Z,10.48
2023-04-28T00:41:00.747Z,8.43
2023-04-28T00:43:27.369Z,9.80
2023-04-28T00:45:54.362Z,9.73
2023-04-28T00:48:22.449Z,8.85
2023-04-28T00:50:48.962Z,11.93
2023-04-28T00:53:15.935Z,8.07
2023-04-28T00:55:42.515Z,8.05
2023-04-28T00:58:09.634Z,11.05
2023-04-28T01:00:36.210Z,10.50
2023-04-28T01:03:03.729Z,8.45
2023-04-28T01:05:34.828Z,7.88
2023-04-28T01:08:01.575Z,7.80
2023-04-28T01:10:28.257Z,11.10
2023-04-28T01:12:58.829Z,8.85
2023-04-28T01:15:28.146Z,9.43
2023-04-28T01:17:55.441Z,10.13
2023-04-28T01:20:22.078Z,10.00
2023-04-28T01:22:48.866Z,9.80
2023-04-28T01:25:15.650Z,11.18
2023-04-28T01:27:42.239Z,8.00
2023-04-28T01:30:10.342Z,10.10
2023-04-28T01:32:37.157Z,8.07
2023-04-28T01:35:04.037Z,8.70
2023-04-28T01:37:30.626Z,8.35
2023-04-28T01:39:57.306Z,9.40
2023-04-28T01:42:24.992Z,10.43
2023-04-28T01:44:52.637Z,8.40
2023-04-28T01:47:20.044Z,11.50
2023-04-28T01:49:48.261Z,10.90
2023-04-28T01:52:14.975Z,12.90
2023-04-28T01:54:41.577Z,10.10
2023-04-28T01:57:08.144Z,11.02
2023-04-28T01:59:35.767Z,10.07
2023-04-28T02:02:02.503Z,11.18
2023-04-28T02:04:29.335Z,10.43
2023-04-28T02:06:56.002Z,9.30
2023-04-28T02:09:22.670Z,12.98
2023-04-28T02:11:50.674Z,12.35
2023-04-28T02:14:17.607Z,11.55
2023-04-28T02:16:44.405Z,13.38
2023-04-28T02:19:11.756Z,12.23
2023-04-28T02:21:38.348Z,10.70
2023-04-28T02:24:08.109Z,11.38
2023-04-28T02:26:35.348Z,11.05
2023-04-28T02:29:04.205Z,10.85
2023-04-28T02:31:32.974Z,12.55
2023-04-28T02:33:59.890Z,12.70
2023-04-28T02:36:27.773Z,13.73
2023-04-28T02:38:55.433Z,10.20
2023-04-28T02:41:22.990Z,12.98
2023-04-28T02:43:49.847Z,12.45
2023-04-28T02:46:16.467Z,17.17
2023-04-28T02:48:43.101Z,13.45
2023-04-28T02:51:12.151Z,10.93
2023-04-28T02:53:38.815Z,13.23
2023-04-28T02:56:05.641Z,10.93
2023-04-28T02:58:33.350Z,9.98
2023-04-28T03:01:00.507Z,13.48
2023-04-28T03:03:27.243Z,12.23
2023-04-28T03:05:56.514Z,13.00
2023-04-28T03:08:23.717Z,13.88
2023-04-28T03:10:50.412Z,18.67
2023-04-28T03:13:17.032Z,13.68
2023-04-28T03:15:43.701Z,12.63
2023-04-28T03:18:10.438Z,11.98
2023-04-28T03:20:37.323Z,9.93
2023-04-28T03:23:04.511Z,13.40
2023-04-28T03:25:31.282Z,13.80
2023-04-28T03:27:57.880Z,10.85
2023-04-28T03:30:25.456Z,12.55
2023-04-28T03:32:52.262Z,15.48
2023-04-28T03:35:19.094Z,13.00
2023-04-28T03:37:45.797Z,14.13
2023-04-28T03:40:13.222Z,16.05
2023-04-28T03:43:17.889Z,18.25
2023-04-28T03:46:07.578Z,14.20
2023-04-28T03:48:34.543Z,14.75
2023-04-28T03:51:02.479Z,17.27
2023-04-28T03:53:29.397Z,14.85
2023-04-28T03:55:56.298Z,19.65
2023-04-28T03:58:23.026Z,11.98
2023-04-28T04:00:50.981Z,15.88
2023-04-28T04:03:17.942Z,15.95
2023-04-28T04:05:44.876Z,14.65
2023-04-28T04:08:11.815Z,15.93
2023-04-28T04:10:39.415Z,18.23
2023-04-28T04:13:06.076Z,16.73
2023-04-28T04:15:32.857Z,18.60
2023-04-28T04:17:59.760Z,15.65
2023-04-28T04:20:31.575Z,15.63
2023-04-28T04:22:58.114Z,24.65
2023-04-28T04:25:24.836Z,18.27
2023-04-28T04:27:52.677Z,15.77
2023-04-28T04:30:19.343Z,21.55
2023-04-28T04:32:45.982Z,18.83
2023-04-28T04:35:12.736Z,17.33
2023-04-28T04:37:39.685Z,18.90
2023-04-28T04:40:07.120Z,18.17
2023-04-28T04:42:39.659Z,18.08
2023-04-28T04:45:08.795Z,16.48
2023-04-28T04:47:36.153Z,18.33
2023-04-28T04:50:02.910Z,22.58
2023-04-28T04:52:29.649Z,20.95
2023-04-28T04:54:56.576Z,19.70
2023-04-28T04:57:24.451Z,22.08
2023-04-28T05:00:06.720Z,19.17
2023-04-28T05:02:34.574Z,19.52
2023-04-28T05:05:16.713Z,21.60
2023-04-28T05:07:49.748Z,19.30
2023-04-28T05:10:16.876Z,25.10
2023-04-28T05:12:46.221Z,21.63
2023-04-28T05:15:17.787Z,25.63
2023-04-28T05:17:56.699Z,20.10
2023-04-28T05:20:24.013Z,21.13
2023-04-28T05:22:50.914Z,20.60
2023-04-28T05:25:17.876Z,17.80
2023-04-28T05:27:44.637Z,22.10
2023-04-28T05:30:11.451Z,23.92
2023-04-28T05:32:38.835Z,21.33
2023-04-28T05:35:06.786Z,21.77
2023-04-28T05:37:33.607Z,21.35
2023-04-28T05:40:00.447Z,19.63
2023-04-28T05:42:27.169Z,22.33
2023-04-28T05:44:53.909Z,23.52
2023-04-28T05:47:21.385Z,23.30
2023-04-28T05:49:48.003Z,19.08
2023-04-28T05:52:14.849Z,22.27
2023-04-28T05:54:41.660Z,22.35
2023-04-28T05:57:09.597Z,24.25
2023-04-28T05:59:36.852Z,22.55
2023-04-28T06:02:03.527Z,20.10
2023-04-28T06:04:32.532Z,21.05
2023-04-28T06:06:59.600Z,18.23
2023-04-28T06:09:29.827Z,21.27
2023-04-28T06:11:56.455Z,22.17
2023-04-28T06:14:23.313Z,20.52
2023-04-28T06:16:51.118Z,18.25
2023-04-28T06:19:20.623Z,18.42
2023-04-28T06:21:50.167Z,18.02
2023-04-28T06:24:18.105Z,18.88
2023-04-28T06:26:46.587Z,19.80
2023-04-28T06:29:13.274Z,19.85
2023-04-28T06:31:40.613Z,20.73
2023-04-28T06:34:07.536Z,18.27
2023-04-28T06:36:35.832Z,18.13
2023-04-28T06:39:05.177Z,15.60
2023-04-28T06:41:33.754Z,19.98
2023-04-28T06:44:02.411Z,18.05
2023-04-28T06:46:30.198Z,20.58
2023-04-28T06:48:57.365Z,19.85
2023-04-28T06:51:24.428Z,18.65
2023-04-28T06:53:53.366Z,17.55
2023-04-28T06:56:20.334Z,17.77
2023-04-28T06:58:48.240Z,16.90
2023-04-28T07:01:14.815Z,15.23
2023-04-28T07:03:42.904Z,14.90
2023-04-28T07:06:09.771Z,18.25
2023-04-28T07:08:36.918Z,14.88
2023-04-28T07:11:04.711Z,17.10
2023-04-28T07:13:32.663Z,15.25
2023-04-28T07:15:59.454Z,14.13
2023-04-28T07:18:26.275Z,15.15
2023-04-28T07:20:53.208Z,17.80
2023-04-28T07:23:19.805Z,14.70
2023-04-28T07:25:46.445Z,13.90
2023-04-28T07:28:14.117Z,14.90
2023-04-28T07:30:40.677Z,13.90
2023-04-28T07:33:07.398Z,15.68
2023-04-28T07:35:34.144Z,13.60
2023-04-28T07:38:01.987Z,13.60
2023-04-28T07:40:28.909Z,13.05
2023-04-28T07:42:55.506Z,11.07
2023-04-28T07:45:22.115Z,16.23
2023-04-28T07:47:48.718Z,15.13
2023-04-28T07:50:16.193Z,11.77
2023-04-28T07:52:43.169Z,12.98
2023-04-28T07:55:09.802Z,11.15
2023-04-28T07:57:36.905Z,12.60
2023-04-28T08:00:04.035Z,12.75
2023-04-28T08:02:38.517Z,12.93
2023-04-28T08:05:07.188Z,13.40
2023-04-28T08:07:33.971Z,12.23
2023-04-28T08:10:01.206Z,12.10
2023-04-28T08:12:28.242Z,13.13
2023-04-28T08:14:55.158Z,13.43
2023-04-28T08:17:21.828Z,11.07
2023-04-28T08:19:48.799Z,15.00
2023-04-28T08:22:15.806Z,11.30
2023-04-28T08:24:42.423Z,12.73
2023-04-28T08:27:08.999Z,14.27
2023-04-28T08:29:35.669Z,11.75
2023-04-28T08:32:02.369Z,15.23
2023-04-28T08:34:29.348Z,11.98
2023-04-28T08:36:55.961Z,17.65
2023-04-28T08:39:23.716Z,16.15
2023-04-28T08:41:50.679Z,15.88
2023-04-28T08:44:17.912Z,14.30
2023-04-28T08:46:47.124Z,16.13
2023-04-28T08:49:18.883Z,14.35
2023-04-28T08:51:50.139Z,13.17
2023-04-28T08:54:26.102Z,14.98
2023-04-28T08:56:54.308Z,15.10
2023-04-28T08:59:21.437Z,16.95
2023-04-28T09:01:52.341Z,17.15
2023-04-28T09:04:20.320Z,16.90
2023-04-28T09:06:47.598Z,16.13
2023-04-28T09:09:25.367Z,13.95
2023-04-28T09:11:56.808Z,15.35
2023-04-28T09:14:23.919Z,15.52
2023-04-28T09:16:51.764Z,20.88
2023-04-28T09:19:18.776Z,19.08
2023-04-28T09:21:54.537Z,15.07
2023-04-28T09:24:32.457Z,16.00
2023-04-28T09:27:00.737Z,15.20
2023-04-28T09:29:27.247Z,14.68
2023-04-28T09:31:54.338Z,15.95
2023-04-28T09:34:22.096Z,14.88
2023-04-28T09:36:48.797Z,16.88
2023-04-28T09:39:15.452Z,17.30
2023-04-28T09:41:45.429Z,17.42
2023-04-28T09:44:19.849Z,16.02
2023-04-28T09:46:47.614Z,17.08
2023-04-28T09:49:15.419Z,14.32
2023-04-28T09:51:42.681Z,14.52
2023-04-28T09:54:09.431Z,15.77
2023-04-28T09:56:42.456Z,12.60
2023-04-28T09:59:09.743Z,15.43
2023-04-28T10:01:41.546Z,13.88
2023-04-28T10:04:09.092Z,15.63
2023-04-28T10:06:39.249Z,12.48
2023-04-28T10:09:07.079Z,12.40
2023-04-28T10:11:34.621Z,12.90
2023-04-28T10:14:01.662Z,11.98
2023-04-28T10:16:31.280Z,10.80
2023-04-28T10:18:58.627Z,11.80
2023-04-28T10:21:27.139Z,11.80
2023-04-28T10:24:15.050Z,10.45
2023-04-28T10:26:53.925Z,11.25
2023-04-28T10:29:25.621Z,11.63
2023-04-28T10:32:17.951Z,9.75
2023-04-28T10:34:45.218Z,10.32
2023-04-28T10:37:11.773Z,10.43
2023-04-28T10:39:38.498Z,11.43
2023-04-28T10:42:05.055Z,11.52
2023-04-28T10:44:31.653Z,12.05
2023-04-28T10:47:04.883Z,11.98
2023-04-28T10:49:57.561Z,11.18
2023-04-28T10:52:33.555Z,11.45
2023-04-28T10:55:30.660Z,13.02
2023-04-28T10:58:26.360Z,12.75
2023-04-28T11:00:53.088Z,14.30
2023-04-28T11:03:47.854Z,14.00
2023-04-28T11:06:26.698Z,14.38
2023-04-28T11:08:55.739Z,14.85
2023-04-28T11:11:25.721Z,13.82
2023-04-28T11:14:13.363Z,14.15
2023-04-28T11:16:56.380Z,13.82
2023-04-28T11:19:24.694Z,14.15
2023-04-28T11:21:53.046Z,17.42
2023-04-28T11:24:20.592Z,17.05
2023-04-28T11:26:47.505Z,17.88
2023-04-28T11:29:17.476Z,15.60
2023-04-28T11:31:51.359Z,17.55
2023-04-28T11:34:22.143Z,16.13
2023-04-28T11:36:48.811Z,15.30
2023-04-28T11:39:15.429Z,15.40
2023-04-28T11:41:44.151Z,19.05
2023-04-28T11:44:19.622Z,18.75
2023-04-28T11:46:51.676Z,21.05
2023-04-28T11:49:20.311Z,19.00
2023-04-28T11:51:49.839Z,19.45
2023-04-28T11:54:27.661Z,17.75
2023-04-28T11:56:56.594Z,21.95
2023-04-28T11:59:25.825Z,20.63
2023-04-28T12:01:54.638Z,24.35
2023-04-28T12:04:40.923Z,21.50
2023-04-28T12:07:12.542Z,23.58
2023-04-28T12:09:40.709Z,22.97
2023-04-28T12:12:12.406Z,22.00
2023-04-28T12:15:02.050Z,23.33
2023-04-28T12:17:34.475Z,25.35
2023-04-28T12:20:04.445Z,24.20
2023-04-28T12:22:31.401Z,23.10
2023-04-28T12:25:09.304Z,23.98
2023-04-28T12:27:39.457Z,21.42
2023-04-28T12:30:25.362Z,22.30
2023-04-28T12:32:52.261Z,21.65
2023-04-28T12:35:25.708Z,24.40
2023-04-28T12:37:53.677Z,20.77
2023-04-28T12:40:20.340Z,19.92
2023-04-28T12:42:47.029Z,20.63
2023-04-28T12:45:14.031Z,18.65
2023-04-28T12:47:40.650Z,20.77
2023-04-28T12:50:08.008Z,22.55
2023-04-28T12:52:35.791Z,20.50
2023-04-28T12:55:03.029Z,19.10
2023-04-28T12:57:29.612Z,18.58
2023-04-28T12:59:57.135Z,21.42
2023-04-28T13:02:24.114Z,19.48
2023-04-28T13:04:52.183Z,17.95
2023-04-28T13:07:19.184Z,15.65
2023-04-28T13:09:47.331Z,15.20
2023-04-28T13:12:14.662Z,13.70
2023-04-28T13:14:41.836Z,11.57
2023-04-28T13:17:09.005Z,14.02
2023-04-28T13:19:35.725Z,15.32
2023-04-28T13:22:05.282Z,9.38
2023-04-28T13:24:33.517Z,7.38
2023-04-28T13:27:00.447Z,7.72
2023-04-28T13:29:26.968Z,6.63
2023-04-28T13:31:53.716Z,7.00
2023-04-28T13:34:20.347Z,6.43
2023-04-28T13:36:48.172Z,8.07
2023-04-28T13:39:15.050Z,6.97
2023-04-28T13:41:42.617Z,6.50
2023-04-28T13:44:09.531Z,6.28
2023-04-28T13:46:36.154Z,7.32
2023-04-28T13:49:02.777Z,6.85
2023-04-28T13:51:29.436Z,7.10
2023-04-28T13:53:56.482Z,5.95
2023-04-28T13:56:23.042Z,9.38
2023-04-28T13:58:49.766Z,5.97
2023-04-28T14:01:16.432Z,7.00
2023-04-28T14:03:45.508Z,7.68
2023-04-28T14:06:12.846Z,5.50
2023-04-28T14:08:39.637Z,5.43
2023-04-28T14:11:06.527Z,6.88
2023-04-28T14:13:33.389Z,6.05
2023-04-28T14:16:00.155Z,5.70
2023-04-28T14:18:29.931Z,7.78
2023-04-28T14:20:56.497Z,6.20
2023-04-28T14:23:23.137Z,7.53
2023-04-28T14:25:50.248Z,6.97
2023-04-28T14:28:17.216Z,6.38
2023-04-28T14:30:44.103Z,5.13
2023-04-28T14:33:10.873Z,10.15
2023-04-28T14:35:37.529Z,5.70
2023-04-28T14:38:04.317Z,5.45
2023-04-28T14:40:31.349Z,5.75
2023-04-28T14:42:58.173Z,6.15
2023-04-28T14:45:25.002Z,9.38
2023-04-28T14:47:53.441Z,8.50
2023-04-28T14:50:21.015Z,5.28
2023-04-28T14:52:47.595Z,6.72
2023-04-28T14:55:14.463Z,7.60
2023-04-28T14:57:41.974Z,6.50
2023-04-28T15:00:09.170Z,5.50
2023-04-28T15:02:35.930Z,6.50
2023-04-28T15:05:03.322Z,6.43
2023-04-28T15:07:31.729Z,7.00
2023-04-28T15:09:59.448Z,7.38
2023-04-28T15:12:26.938Z,7.05
2023-04-28T15:14:53.873Z,10.77
2023-04-28T15:17:23.561Z,8.63
2023-04-28T15:19:50.146Z,15.93
2023-04-28T15:22:16.985Z,8.80
2023-04-28T15:24:43.692Z,7.10
2023-04-28T15:27:10.801Z,8.23
2023-04-28T15:29:37.457Z,6.50
2023-04-28T15:32:04.955Z,6.22
2023-04-28T15:34:31.565Z,4.82
2023-04-28T15:36:58.189Z,4.72
2023-04-28T15:39:25.585Z,3.50
2023-04-28T15:41:53.158Z,4.20
2023-04-28T15:44:19.902Z,4.32
2023-04-28T15:46:46.714Z,5.15
2023-04-28T15:49:13.756Z,6.53
2023-04-28T15:51:40.348Z,6.97
2023-04-28T15:54:07.001Z,7.35
2023-04-28T15:56:33.837Z,8.55
2023-04-28T15:59:00.443Z,10.32
2023-04-28T16:01:28.417Z,12.32
2023-04-28T16:03:55.241Z,13.95
2023-04-28T16:06:22.047Z,10.25
2023-04-28T16:08:48.704Z,10.50
2023-04-28T16:11:19.297Z,14.68
2023-04-28T16:13:45.906Z,11.45
2023-04-28T16:16:12.596Z,10.70
2023-04-28T16:18:39.483Z,12.27
2023-04-28T16:21:06.500Z,11.70
2023-04-28T16:23:33.397Z,12.07
2023-04-28T16:26:00.193Z,11.43
2023-04-28T16:28:27.108Z,11.70
2023-04-28T16:30:54.866Z,11.95
2023-04-28T16:33:21.513Z,12.20
2023-04-28T16:35:56.063Z,13.70
2023-04-28T16:38:22.798Z,13.10
2023-04-28T16:40:50.690Z,12.20
2023-04-28T16:43:18.000Z,13.65
2023-04-28T16:45:44.799Z,12.95
2023-04-28T16:48:11.650Z,15.48
2023-04-28T16:50:40.769Z,16.90
2023-04-28T16:53:08.102Z,13.13
2023-04-28T16:55:36.545Z,13.23
2023-04-28T16:58:03.818Z,13.10
2023-04-28T17:00:30.951Z,16.33
2023-04-28T17:02:57.697Z,14.13
2023-04-28T17:05:24.444Z,15.05
2023-04-28T17:07:51.052Z,16.58
2023-04-28T17:10:17.854Z,14.88
2023-04-28T17:12:45.573Z,17.98
2023-04-28T17:15:18.398Z,12.70
2023-04-28T17:17:48.998Z,16.90
2023-04-28T17:20:19.806Z,17.63
2023-04-28T17:22:47.502Z,16.30
2023-04-28T17:25:14.491Z,17.00
2023-04-28T17:27:41.094Z,13.82
2023-04-28T17:30:10.963Z,14.13
2023-04-28T17:32:38.140Z,16.38
2023-04-28T17:35:07.311Z,22.17
2023-04-28T17:37:34.612Z,18.33
2023-04-28T17:40:01.941Z,13.05
2023-04-28T17:42:31.455Z,10.75
2023-04-28T17:44:58.065Z,11.63
2023-04-28T17:47:24.747Z,15.98
2023-04-28T17:49:51.842Z,13.65
2023-04-28T17:52:18.587Z,15.15
2023-04-28T17:54:45.238Z,13.80
2023-04-28T17:57:12.925Z,12.15
2023-04-28T17:59:40.618Z,15.95
2023-04-28T18:02:11.259Z,14.52
2023-04-28T18:04:38.418Z,14.93
2023-04-28T18:07:06.391Z,14.98
2023-04-28T18:09:33.219Z,13.32
2023-04-28T18:12:02.293Z,13.57
2023-04-28T18:14:31.234Z,14.60
2023-04-28T18:16:58.428Z,16.70
2023-04-28T18:19:28.614Z,15.18
2023-04-28T18:21:56.717Z,13.75
2023-04-28T18:24:23.992Z,19.45
2023-04-28T18:26:50.653Z,13.60
2023-04-28T18:29:18.840Z,13.68
2023-04-28T18:31:46.275Z,16.20
2023-04-28T18:34:13.259Z,15.20
2023-04-28T18:36:39.949Z,13.63
2023-04-28T18:41:53.242Z,13.13
2023-04-28T18:44:21.008Z,17.65
2023-04-28T18:46:47.719Z,15.05
2023-04-28T18:49:14.618Z,13.75
2023-04-28T18:51:41.184Z,12.00
2023-04-28T18:54:07.798Z,11.10
2023-04-28T18:56:35.045Z,11.68
2023-04-28T18:59:04.258Z,12.50
2023-04-28T19:01:30.963Z,10.32
2023-04-28T19:03:58.354Z,9.88
2023-04-28T19:06:25.617Z,13.77
2023-04-28T19:08:52.297Z,10.48
2023-04-28T19:11:18.914Z,10.07
2023-04-28T19:13:45.598Z,10.32
2023-04-28T19:16:12.590Z,9.68
2023-04-28T19:18:39.757Z,8.95
2023-04-28T19:21:06.406Z,8.15
2023-04-28T19:23:33.713Z,8.73
2023-04-28T19:26:01.897Z,10.18
2023-04-28T19:28:28.927Z,9.30
2023-04-28T19:30:59.216Z,7.57
2023-04-28T19:33:28.261Z,8.93
2023-04-28T19:35:55.390Z,9.52
2023-04-28T19:38:23.395Z,9.10
2023-04-28T19:40:57.982Z,10.63
2023-04-28T19:43:24.594Z,9.73
2023-04-28T19:45:51.458Z,9.45
2023-04-28T19:48:18.781Z,10.13
2023-04-28T19:50:47.281Z,9.40
2023-04-28T19:53:14.697Z,9.20
2023-04-28T19:55:41.272Z,8.43
2023-04-28T19:58:09.714Z,8.80
2023-04-28T20:00:36.694Z,8.80
2023-04-28T20:03:03.978Z,11.05
2023-04-28T20:05:31.301Z,16.70
2023-04-28T20:07:57.964Z,19.02
2023-04-28T20:10:25.622Z,21.40
2023-04-28T20:12:53.823Z,24.75
2023-04-28T20:15:20.798Z,24.60
2023-04-28T20:17:48.463Z,31.48
2023-04-28T20:20:15.512Z,30.50
2023-04-28T20:22:42.150Z,29.63
2023-04-28T20:25:10.442Z,31.25
2023-04-28T20:27:37.430Z,31.83
2023-04-28T20:30:05.715Z,33.92
2023-04-28T20:32:32.499Z,32.65
2023-04-28T20:35:02.748Z,37.85
2023-04-28T20:37:30.095Z,36.05
2023-04-28T20:39:56.920Z,35.55
2023-04-28T20:42:23.528Z,34.95
2023-04-28T20:44:50.893Z,32.17
2023-04-28T20:47:17.902Z,33.50
2023-04-28T20:49:44.507Z,40.70
2023-04-28T20:52:11.226Z,34.60
2023-04-28T20:54:37.943Z,37.58
2023-04-28T20:57:04.941Z,37.83
2023-04-28T20:59:32.855Z,44.28
2023-04-28T21:02:00.202Z,38.80
2023-04-28T21:04:28.136Z,35.35
2023-04-28T21:06:55.468Z,31.58
2023-04-28T21:09:24.794Z,34.05
2023-04-28T21:11:51.377Z,38.10
2023-04-28T21:14:18.007Z,37.83
2023-04-28T21:16:44.615Z,40.88
2023-04-28T21:19:11.633Z,41.33
2023-04-28T21:21:38.714Z,43.58
2023-04-28T21:24:06.127Z,42.08
2023-04-28T21:26:32.977Z,41.75
2023-04-28T21:28:59.901Z,47.60
2023-04-28T21:31:27.038Z,43.88
2023-04-28T21:33:53.669Z,45.33
2023-04-28T21:36:20.476Z,41.20
2023-04-28T21:38:47.225Z,43.90
2023-04-28T21:41:14.142Z,43.63
2023-04-28T21:43:40.751Z,38.97
2023-04-28T21:46:07.983Z,44.25
2023-04-28T21:48:35.218Z,43.28
2023-04-28T21:51:01.813Z,46.35
2023-04-28T21:53:28.872Z,50.83
2023-04-28T21:55:55.467Z,48.00
2023-04-28T21:58:22.152Z,48.53
2023-04-28T22:00:48.991Z,53.65
2023-04-28T22:03:16.362Z,51.80
2023-04-28T22:05:44.880Z,49.97
2023-04-28T22:08:12.000Z,53.88
2023-04-28T22:10:38.777Z,53.28
2023-04-28T22:13:06.383Z,49.97
2023-04-28T22:15:33.125Z,56.92
2023-04-28T22:17:59.825Z,60.85
2023-04-28T22:20:26.881Z,60.08
2023-04-28T22:22:53.988Z,68.18
2023-04-28T22:25:20.921Z,70.78
2023-04-28T22:27:47.576Z,75.85
2023-04-28T22:30:14.663Z,81.40
2023-04-28T22:32:46.749Z,74.88
2023-04-28T22:35:13.906Z,81.05
2023-04-28T22:37:41.514Z,80.60
2023-04-28T22:40:09.111Z,78.93
2023-04-28T22:42:37.203Z,82.10
2023-04-28T22:45:04.426Z,86.35
2023-04-28T22:47:31.084Z,86.55
2023-04-28T22:49:57.745Z,84.30
2023-04-28T22:52:24.497Z,79.93
2023-04-28T22:54:51.319Z,85.45
2023-04-28T22:57:18.044Z,74.35
2023-04-28T22:59:45.113Z,80.57
2023-04-28T23:02:13.543Z,71.28
2023-04-28T23:04:41.062Z,79.15
2023-04-28T23:07:08.762Z,73.10
2023-04-28T23:09:37.197Z,72.38
2023-04-28T23:12:04.931Z,76.75
2023-04-28T23:14:33.807Z,71.55
2023-04-28T23:17:00.429Z,78.55
2023-04-28T23:19:27.027Z,72.88
2023-04-28T23:21:54.461Z,85.63
2023-04-28T23:24:21.130Z,80.70
2023-04-28T23:26:47.659Z,78.20
2023-04-28T23:29:14.438Z,92.57
2023-04-28T23:31:41.286Z,80.65
2023-04-28T23:34:08.608Z,90.38
2023-04-28T23:36:36.426Z,85.35
2023-04-28T23:39:03.178Z,70.95
2023-04-28T23:41:29.733Z,75.68
2023-04-28T23:43:56.804Z,69.65
2023-04-28T23:46:23.864Z,63.85
2023-04-28T23:48:50.833Z,65.43
2023-04-28T23:51:17.508Z,71.28
2023-04-28T23:53:44.241Z,69.68
2023-04-28T23:56:11.864Z,78.15
2023-04-28T23:58:39.878Z,72.35
